Ana Sayfa
METAR-TAF:

METAR-TAF

Havaalanları :

Collin County Regional Airport at McKinney

McKinney, Teksas, Amerika Birleşik Devletleri

Enlem: 33-10-40N, Boylam: 096-35-25W, yükseklik: 178 m

Güncel hava durumu gözlemi

Rapor saat 09:53 UTC de 32 dakika önce yapıldı.
Rüzgar güneydoğudan 5 kt
Sıcaklık 1°C
Nem 80%
Basınç 1027 hPa
Görüş mesafesi: 16.1 km
Açık gökyüzü

METAR: KTKI 120953Z AUTO 14005KT 10SM CLR 01/M02 A3032 RMK AO2 SLP280 T00061017

Saat: 04:25 (10:25 UTC)


TAF: eksik

4.000'den fazla havaalanı için hava durumu gözlemleri ve tahminleri (METAR ve TAF raporları).

Kullanılabilir istasyonlar harita üzerinde sarı ve kırmızı noktalarla gösterilir.

İstasyonun adını görmek için fareyi noktanın üzerinde gezdirin.

Sonrasında hava gözlem ve tahminlerini görmek için tıklayın.

Haritayı değiştirmek için: yaklaştırmak için siyah artı işaretli yeşil düğmeye ve uzaklaştırmak için de eksi işaretli düğmeye hızla tıklayın; bitişik haritalar için yeşil okları kullanın.


METAR-TAF: